Time;durP1;ratioP1;P1;durP2;ratioP2;P2;SDS_P1;SDS_P2;PMS_P1;PMS_P2;Temp;Humidity;BMP_temperature;BMP_pressure;BME280_temperature;BME280_humidity;BME280_pressure;Samples;Min_cycle;Max_cycle;Signal;HPM_P1;HPM_P2
2021/07/28 00:00:20;;;;;;;15.83;13.40;;;21.30;99.90;;;21.39;93.04;97924.31;5026497;28;21536;-62
2021/07/28 00:02:50;;;;;;;16.67;13.53;;;21.30;99.90;;;21.37;93.56;97919.19;5029674;28;20623;-62
2021/07/28 00:05:18;;;;;;;15.63;13.83;;;21.30;99.90;;;21.36;93.10;97912.25;5027825;28;20721;-61
2021/07/28 00:07:47;;;;;;;16.53;13.80;;;21.30;99.90;;;21.33;93.00;97907.28;5027191;28;20727;-62
2021/07/28 00:10:16;;;;;;;16.47;13.07;;;21.20;99.90;;;21.32;92.91;97916.22;5025464;28;21044;-62
2021/07/28 00:12:44;;;;;;;17.67;13.97;;;21.20;99.90;;;21.31;93.75;97903.13;5031925;28;20670;-62
2021/07/28 00:15:14;;;;;;;15.97;13.67;;;21.20;99.90;;;21.29;92.93;97911.28;5027569;28;20630;-61
2021/07/28 00:17:46;;;;;;;16.03;13.97;;;21.20;99.90;;;21.29;93.52;97911.28;5025675;28;20636;-62
2021/07/28 00:20:23;;;;;;;17.23;15.07;;;21.20;99.90;;;21.28;93.40;97908.78;5023340;28;20659;-63
2021/07/28 00:25:38;;;;;;;18.33;14.53;;;21.20;99.90;;;21.26;93.29;97905.50;5028157;28;20735;-63
2021/07/28 00:28:06;;;;;;;19.47;13.93;;;21.20;99.90;;;21.25;93.31;97901.19;5025417;28;20728;-61
2021/07/28 00:30:35;;;;;;;15.70;13.83;;;21.10;99.90;;;21.26;93.15;97899.34;5021761;28;21229;-63
2021/07/28 00:33:04;;;;;;;16.63;13.93;;;21.20;99.90;;;21.24;93.22;97904.00;5028704;28;20710;-63
2021/07/28 00:35:34;;;;;;;18.03;14.40;;;21.20;99.90;;;21.22;92.78;97908.69;5031602;28;20627;-62
2021/07/28 00:38:05;;;;;;;16.10;12.87;;;21.10;99.90;;;21.20;93.19;97903.53;5027622;28;20773;-62
2021/07/28 00:40:34;;;;;;;18.10;14.53;;;21.10;99.90;;;21.20;92.86;97905.34;5027055;28;20668;-62
2021/07/28 00:43:16;;;;;;;15.63;13.53;;;21.10;99.90;;;21.19;93.49;97909.84;5033147;28;20721;-62
2021/07/28 00:45:47;;;;;;;18.73;14.23;;;21.10;99.90;;;21.17;93.33;97914.50;5034958;28;21186;-62
2021/07/28 00:48:16;;;;;;;19.40;15.50;;;21.00;99.90;;;21.16;92.90;97923.47;5030630;28;20635;-62
2021/07/28 00:50:46;;;;;;;17.40;14.80;;;21.10;99.90;;;21.15;93.37;97931.59;5025855;28;20648;-63
2021/07/28 00:53:18;;;;;;;18.53;13.97;;;21.00;99.90;;;21.14;93.62;97922.81;5033157;28;20673;-62
2021/07/28 00:55:48;;;;;;;17.33;13.93;;;21.00;99.90;;;21.10;93.11;97926.00;5033657;28;20673;-62
2021/07/28 00:58:32;;;;;;;18.27;14.13;;;21.00;99.90;;;21.05;93.71;97923.00;5032919;28;21015;-62
2021/07/28 01:01:01;;;;;;;20.13;14.10;;;20.90;99.90;;;21.07;93.91;97926.34;5024418;28;20647;-62
2021/07/28 01:03:30;;;;;;;18.10;14.57;;;20.90;99.90;;;21.07;93.50;97928.97;5023074;28;20994;-62
2021/07/28 01:06:00;;;;;;;19.27;14.57;;;21.00;99.90;;;21.05;93.83;97928.31;5033140;28;20658;-62
2021/07/28 01:08:30;;;;;;;18.13;14.27;;;21.00;99.90;;;21.02;93.17;97912.78;5027254;28;20638;-61
2021/07/28 01:11:00;;;;;;;17.83;15.37;;;20.90;99.90;;;20.99;93.68;97903.31;5030129;28;20628;-62
2021/07/28 01:13:30;;;;;;;18.00;14.30;;;20.90;99.90;;;20.98;93.15;97906.16;5033237;28;20733;-62
2021/07/28 01:16:05;;;;;;;15.67;13.90;;;20.90;99.90;;;20.99;93.39;97905.16;5025731;28;20631;-61
2021/07/28 01:18:35;;;;;;;21.30;14.73;;;20.90;99.90;;;20.98;94.43;97914.91;5028620;28;20666;-62
2021/07/28 01:21:08;;;;;;;18.40;14.20;;;20.90;99.90;;;20.96;94.01;97914.28;5032950;28;20653;-62
2021/07/28 01:23:39;;;;;;;18.63;15.47;;;20.90;99.90;;;20.93;94.49;97911.97;5030305;28;20647;-62
2021/07/28 01:26:09;;;;;;;17.60;14.43;;;20.90;99.90;;;20.90;93.87;97907.00;5032572;28;20718;-62
2021/07/28 01:28:38;;;;;;;20.53;14.93;;;20.90;99.90;;;20.88;95.12;97909.03;5030909;28;20639;-61
2021/07/28 01:31:10;;;;;;;16.37;13.53;;;20.90;99.90;;;20.86;94.39;97918.13;5033995;28;20625;-61
2021/07/28 01:33:41;;;;;;;19.27;15.10;;;20.80;99.90;;;20.83;95.35;97907.88;5023252;28;20628;-62
2021/07/28 01:36:13;;;;;;;16.87;15.07;;;20.80;99.90;;;20.81;95.43;97907.22;5031621;28;20634;-62
2021/07/28 01:38:44;;;;;;;19.10;15.13;;;20.80;99.90;;;20.80;96.14;97908.22;5027916;28;20667;-62
2021/07/28 01:41:13;;;;;;;19.33;14.80;;;20.70;99.90;;;20.81;95.48;97916.00;5032491;28;20730;-62
2021/07/28 01:43:43;;;;;;;19.40;15.40;;;20.70;99.90;;;20.81;95.75;97918.66;5033003;28;20631;-62
2021/07/28 01:46:13;;;;;;;21.13;17.17;;;20.70;99.90;;;20.77;95.19;97913.03;5026209;28;20737;-62
2021/07/28 01:48:41;;;;;;;18.10;15.87;;;20.70;99.90;;;20.76;95.22;97916.69;5028075;28;20643;-62
2021/07/28 01:51:10;;;;;;;17.73;15.30;;;20.70;99.90;;;20.76;94.91;97912.19;5028726;28;20763;-61
2021/07/28 01:53:41;;;;;;;19.50;16.50;;;20.70;99.90;;;20.78;96.37;97930.59;5027304;28;21258;-62
2021/07/28 01:56:11;;;;;;;21.10;16.33;;;20.70;99.90;;;20.77;95.31;97924.47;5026638;28;20638;-62
2021/07/28 01:58:42;;;;;;;22.03;16.27;;;20.70;99.90;;;20.77;96.63;97921.00;5026801;28;20635;-62
2021/07/28 02:01:10;;;;;;;20.67;16.40;;;20.70;99.90;;;20.76;96.32;97912.19;5025364;28;21267;-62
2021/07/28 02:03:41;;;;;;;19.30;16.00;;;20.70;99.90;;;20.75;95.46;97926.47;5026602;28;20641;-62
2021/07/28 02:06:09;;;;;;;20.33;16.10;;;20.70;99.90;;;20.74;95.73;97918.69;5034843;28;20663;-62
2021/07/28 02:08:38;;;;;;;20.63;15.27;;;20.70;99.90;;;20.73;96.62;97932.94;5033505;28;20639;-61
2021/07/28 02:11:10;;;;;;;22.03;16.63;;;20.70;99.90;;;20.68;95.63;97922.84;5030173;28;20631;-62
2021/07/28 02:13:39;;;;;;;19.77;15.87;;;20.60;99.90;;;20.69;95.41;97926.31;5027642;28;21015;-62
2021/07/28 02:16:08;;;;;;;19.50;16.90;;;20.60;99.90;;;20.68;96.24;97922.84;5021865;28;20653;-62
2021/07/28 02:18:36;;;;;;;22.00;17.00;;;20.60;99.90;;;20.67;96.62;97922.97;5026781;28;20956;-62
2021/07/28 02:21:05;;;;;;;21.90;16.53;;;20.60;99.90;;;20.66;96.94;97911.56;5030823;28;21230;-62
2021/07/28 02:23:34;;;;;;;21.33;16.70;;;20.60;99.90;;;20.67;96.60;97918.53;5028841;28;20630;-62
2021/07/28 02:26:02;;;;;;;21.37;17.50;;;20.60;99.90;;;20.67;95.92;97920.31;5030654;28;21227;-63
2021/07/28 02:28:32;;;;;;;26.50;16.60;;;20.60;99.90;;;20.65;97.30;97911.72;5021012;28;20708;-61
2021/07/28 02:31:01;;;;;;;21.80;17.10;;;20.60;99.90;;;20.63;97.13;97905.78;5028595;28;20626;-62
2021/07/28 02:33:29;;;;;;;20.87;17.60;;;20.60;99.90;;;20.61;96.58;97902.44;5027536;28;21015;-61
2021/07/28 02:35:58;;;;;;;20.87;17.13;;;20.50;99.90;;;20.60;97.47;97896.34;5028686;28;20633;-61
2021/07/28 02:38:27;;;;;;;21.03;17.00;;;20.50;99.90;;;20.59;97.42;97894.66;5024481;28;20635;-61
2021/07/28 02:40:55;;;;;;;20.80;16.33;;;20.50;99.90;;;20.56;97.48;97895.00;5030923;28;20672;-61
2021/07/28 02:43:24;;;;;;;21.33;16.73;;;20.50;99.90;;;20.55;96.53;97890.72;5026948;28;20634;-61
2021/07/28 02:45:54;;;;;;;21.73;17.23;;;20.50;99.90;;;20.56;97.58;97896.84;5023154;28;20642;-62
2021/07/28 02:48:22;;;;;;;18.70;15.13;;;20.50;99.90;;;20.54;97.60;97901.50;5024625;28;20727;-61
2021/07/28 02:50:51;;;;;;;20.57;16.50;;;20.50;99.90;;;20.55;97.18;97908.44;5027574;28;20722;-62
2021/07/28 02:53:23;;;;;;;18.00;14.60;;;20.50;99.90;;;20.52;97.03;97900.81;5022774;28;20630;-62
2021/07/28 02:55:51;;;;;;;16.23;13.80;;;20.50;99.90;;;20.50;95.79;97903.66;5030641;28;20756;-61
2021/07/28 02:58:20;;;;;;;16.73;14.23;;;20.50;99.90;;;20.49;96.54;97896.72;5026216;28;20637;-63
2021/07/28 03:00:48;;;;;;;17.97;14.30;;;20.50;99.90;;;20.49;94.64;97898.50;5029494;28;20784;-62
2021/07/28 03:03:18;;;;;;;17.73;14.13;;;20.40;99.90;;;20.45;94.61;97895.38;5030649;28;20633;-62
2021/07/28 03:05:47;;;;;;;16.43;13.30;;;20.40;99.90;;;20.44;95.00;97898.22;5030906;28;20764;-62
2021/07/28 03:08:15;;;;;;;16.07;12.93;;;20.40;99.90;;;20.43;95.14;97897.38;5035268;28;20640;-61
2021/07/28 03:10:44;;;;;;;14.93;13.27;;;20.40;99.90;;;20.39;95.86;97898.72;5029747;28;20637;-62
2021/07/28 03:13:12;;;;;;;16.40;13.77;;;20.40;99.90;;;20.35;95.57;97897.38;5031461;28;20630;-62
2021/07/28 03:15:41;;;;;;;14.40;12.10;;;20.30;99.90;;;20.32;96.40;97900.38;5028101;28;20641;-62
2021/07/28 03:18:09;;;;;;;16.07;13.60;;;20.30;99.90;;;20.32;94.65;97898.75;5031806;28;20768;-62
2021/07/28 03:20:39;;;;;;;14.50;13.00;;;20.30;99.90;;;20.32;96.41;97897.72;5025209;28;21494;-61
2021/07/28 03:23:08;;;;;;;17.40;13.50;;;20.30;99.90;;;20.31;95.76;97897.91;5028738;28;20737;-62
2021/07/28 03:25:36;;;;;;;14.83;13.23;;;20.30;99.90;;;20.29;96.04;97897.25;5025318;28;20671;-61
2021/07/28 03:28:06;;;;;;;17.10;13.57;;;20.20;99.90;;;20.25;95.93;97895.09;5021335;28;20695;-62
2021/07/28 03:30:35;;;;;;;18.10;14.23;;;20.20;99.90;;;20.21;95.23;97889.31;5030068;28;20739;-62
2021/07/28 03:33:03;;;;;;;15.93;12.57;;;20.20;99.90;;;20.19;94.78;97886.03;5034551;28;20635;-62
2021/07/28 03:35:33;;;;;;;15.60;12.77;;;20.10;99.90;;;20.17;95.21;97887.19;5027950;28;20645;-63
2021/07/28 03:38:02;;;;;;;16.50;13.43;;;20.10;99.90;;;20.15;96.64;97897.13;5029847;28;21247;-61
2021/07/28 03:40:31;;;;;;;14.73;11.93;;;20.10;99.90;;;20.15;96.96;97894.47;5027459;28;20668;-61
2021/07/28 03:43:00;;;;;;;18.90;13.70;;;20.10;99.90;;;20.13;97.32;97897.28;5029290;28;20978;-62
2021/07/28 03:45:29;;;;;;;19.30;13.87;;;20.10;99.90;;;20.14;95.96;97900.75;5027774;28;21008;-62
2021/07/28 03:47:58;;;;;;;16.77;14.87;;;20.10;99.90;;;20.14;97.36;97898.94;5021431;28;20618;-62
2021/07/28 03:50:26;;;;;;;16.87;14.43;;;20.10;99.90;;;20.14;95.52;97900.75;5032240;28;20625;-62
2021/07/28 03:52:57;;;;;;;17.40;13.90;;;20.10;99.90;;;20.13;97.19;97897.28;5031508;28;20660;-62
2021/07/28 03:55:28;;;;;;;18.37;13.33;;;20.10;99.90;;;20.15;95.86;97899.78;5028551;28;21195;-61
2021/07/28 03:57:56;;;;;;;16.10;13.60;;;20.10;99.90;;;20.15;97.00;97911.19;5028990;28;20632;-62
2021/07/28 04:00:25;;;;;;;18.17;14.20;;;20.10;99.90;;;20.14;97.34;97914.81;5029218;28;20675;-62
2021/07/28 04:02:53;;;;;;;18.23;13.10;;;20.10;99.90;;;20.13;97.04;97909.69;5025042;28;20638;-61
2021/07/28 04:05:22;;;;;;;18.07;14.20;;;20.10;99.90;;;20.14;96.84;97898.13;5029750;28;21235;-62
2021/07/28 04:07:58;;;;;;;16.00;13.23;;;20.10;99.90;;;20.18;95.43;97910.03;5028715;28;20626;-61
2021/07/28 04:10:29;;;;;;;17.80;13.97;;;20.10;99.90;;;20.17;96.52;97909.19;5031001;28;20737;-61
2021/07/28 04:12:57;;;;;;;17.67;13.87;;;20.10;99.90;;;20.11;95.92;97915.16;5029835;28;20633;-62
2021/07/28 04:15:26;;;;;;;16.70;12.87;;;20.00;99.90;;;20.10;96.60;97917.97;5022796;28;21063;-61
2021/07/28 04:17:54;;;;;;;16.10;13.83;;;19.90;99.90;;;20.11;97.57;97920.44;5030320;28;20628;-62
2021/07/28 04:20:23;;;;;;;16.50;11.67;;;20.00;99.90;;;20.12;98.16;97918.66;5035118;28;20668;-61
2021/07/28 04:22:51;;;;;;;14.80;12.73;;;20.00;99.90;;;20.14;98.23;97906.88;5026328;28;21018;-62
2021/07/28 04:25:20;;;;;;;13.90;12.30;;;20.10;99.90;;;20.13;97.48;97910.53;5025104;28;20638;-63
2021/07/28 04:27:50;;;;;;;14.23;12.30;;;20.00;99.90;;;20.13;97.12;97929.09;5026854;28;21034;-62
2021/07/28 04:30:20;;;;;;;16.30;12.77;;;20.10;99.90;;;20.14;97.50;97921.94;5027824;28;20633;-61
2021/07/28 04:32:49;;;;;;;16.43;13.10;;;20.10;99.90;;;20.16;97.75;97922.59;5028778;28;20632;-62
2021/07/28 04:35:18;;;;;;;17.30;13.67;;;20.10;99.90;;;20.16;97.23;97914.66;5031646;28;20632;-61
2021/07/28 04:37:46;;;;;;;14.77;12.33;;;20.10;99.90;;;20.19;96.89;97909.03;5030780;28;20792;-63
2021/07/28 04:40:16;;;;;;;15.83;12.93;;;20.10;99.90;;;20.21;96.90;97897.28;5038467;28;21287;-62
2021/07/28 04:42:44;;;;;;;12.80;11.30;;;20.10;99.90;;;20.27;96.68;97915.16;5028012;28;20662;-61
2021/07/28 04:45:15;;;;;;;16.37;10.90;;;20.20;99.90;;;20.29;94.99;97923.75;5026053;28;21188;-62
2021/07/28 04:47:44;;;;;;;11.80;10.60;;;20.20;99.90;;;20.31;96.62;97923.56;5024366;28;20635;-62
2021/07/28 04:50:13;;;;;;;11.70;9.87;;;20.20;99.90;;;20.29;95.55;97923.75;5030179;28;21340;-61
2021/07/28 04:52:42;;;;;;;16.23;11.43;;;20.20;99.90;;;20.29;96.66;97914.97;5029084;28;20656;-62
2021/07/28 04:55:11;;;;;;;13.13;11.40;;;20.20;99.90;;;20.28;96.38;97900.06;5027696;28;20625;-62
2021/07/28 04:57:40;;;;;;;12.73;11.13;;;20.20;99.90;;;20.28;95.14;97914.13;5028384;28;21207;-62
2021/07/28 05:00:11;;;;;;;14.43;12.30;;;20.20;99.90;;;20.32;95.54;97925.25;5024128;28;20634;-61
2021/07/28 05:02:40;;;;;;;15.90;11.10;;;20.20;99.90;;;20.35;95.55;97917.78;5032373;28;20732;-61
2021/07/28 05:05:10;;;;;;;13.37;11.70;;;20.20;99.90;;;20.36;96.02;97909.66;5025211;28;20631;-62
2021/07/28 05:07:39;;;;;;;14.63;11.53;;;20.30;99.90;;;20.46;95.79;97910.31;5031551;28;20636;-63
2021/07/28 05:10:09;;;;;;;13.33;10.80;;;20.30;99.90;;;20.51;94.53;97901.84;5025887;28;20627;-62
2021/07/28 05:12:37;;;;;;;16.10;11.00;;;20.40;99.90;;;20.60;94.74;97917.53;5023109;28;20636;-63
2021/07/28 05:15:07;;;;;;;12.00;10.40;;;20.50;99.90;;;20.65;94.48;97920.50;5027071;28;20638;-62
2021/07/28 05:17:35;;;;;;;12.53;10.50;;;20.50;99.90;;;20.69;96.11;97919.19;5028610;28;21553;-62
2021/07/28 05:20:07;;;;;;;14.03;11.63;;;20.60;99.90;;;20.73;95.81;97917.03;5026895;28;20632;-63
2021/07/28 05:22:36;;;;;;;12.07;9.70;;;20.60;99.90;;;20.74;94.30;97910.72;5031786;28;21204;-63
2021/07/28 05:25:06;;;;;;;11.90;10.33;;;20.60;99.90;;;20.73;95.63;97922.31;5023814;28;20628;-62
2021/07/28 05:27:35;;;;;;;16.40;13.10;;;20.60;99.90;;;20.71;95.34;97929.63;5023839;28;21030;-63
2021/07/28 05:30:05;;;;;;;12.00;10.23;;;20.60;99.90;;;20.69;96.51;97935.09;5026618;28;20636;-61
2021/07/28 05:32:34;;;;;;;11.30;9.70;;;20.60;99.90;;;20.70;95.89;97926.13;5021653;28;20633;-61
2021/07/28 05:35:08;;;;;;;11.70;10.30;;;20.60;99.90;;;20.73;96.26;97931.09;5026589;28;20671;-62
2021/07/28 05:37:36;;;;;;;13.10;10.57;;;20.70;99.90;;;20.76;94.65;97927.28;5023792;28;20740;-61
2021/07/28 05:40:06;;;;;;;11.30;10.10;;;20.70;99.90;;;20.76;95.43;97925.44;5022920;28;20664;-62
2021/07/28 05:42:35;;;;;;;13.00;11.10;;;20.60;99.90;;;20.75;95.40;97917.66;5020979;28;20839;-63
2021/07/28 05:45:04;;;;;;;11.47;10.27;;;20.60;99.90;;;20.76;95.33;97927.28;5025139;28;20727;-62
2021/07/28 05:47:33;;;;;;;11.00;9.57;;;20.60;99.90;;;20.74;95.07;97927.47;5020175;28;21181;-63
2021/07/28 05:50:01;;;;;;;10.90;9.70;;;20.60;99.90;;;20.78;95.59;97942.03;5020629;28;20974;-61
2021/07/28 05:52:31;;;;;;;12.00;10.67;;;20.60;99.90;;;20.81;95.18;97945.16;5024605;28;21189;-61
2021/07/28 05:55:00;;;;;;;11.73;10.20;;;20.70;99.90;;;20.84;95.83;97944.00;5021861;28;21102;-61
2021/07/28 05:57:28;;;;;;;11.93;10.73;;;20.70;99.90;;;20.86;95.04;97926.91;5019027;28;20738;-62
2021/07/28 05:59:58;;;;;;;11.17;10.07;;;20.80;99.90;;;20.90;95.80;97919.47;5021825;28;20683;-62
2021/07/28 06:02:27;;;;;;;11.83;10.60;;;20.80;99.90;;;20.90;95.62;97933.53;5021441;28;21234;-62
2021/07/28 06:04:56;;;;;;;12.40;10.97;;;20.80;99.90;;;20.92;96.39;97946.63;5023169;28;20647;-62
2021/07/28 06:07:24;;;;;;;13.07;11.57;;;20.80;99.90;;;20.95;95.93;97940.97;5020471;28;21077;-64
2021/07/28 06:09:55;;;;;;;13.47;10.90;;;20.80;99.90;;;20.96;96.27;97940.00;5024961;28;20622;-62
2021/07/28 06:12:24;;;;;;;14.77;11.30;;;20.90;99.90;;;20.98;96.78;97937.97;5025555;28;20633;-62
2021/07/28 06:14:52;;;;;;;13.50;11.80;;;20.90;99.90;;;21.01;96.07;97951.72;5022925;28;20631;-62
2021/07/28 06:17:21;;;;;;;16.17;13.87;;;20.90;99.90;;;21.03;95.89;97956.84;5025159;28;21560;-62
2021/07/28 06:19:49;;;;;;;16.67;11.67;;;20.90;99.90;;;21.05;95.80;97950.38;5018394;28;20789;-62
2021/07/28 06:22:18;;;;;;;13.40;11.93;;;21.00;99.90;;;21.06;96.34;97938.75;5025031;28;20698;-62
2021/07/28 06:24:46;;;;;;;13.00;11.53;;;21.00;99.90;;;21.06;95.80;97944.06;5025872;28;20630;-62
2021/07/28 06:27:16;;;;;;;12.53;11.23;;;21.00;99.90;;;21.12;95.49;97945.19;5023278;28;20674;-62
2021/07/28 06:29:45;;;;;;;16.57;12.17;;;21.00;99.90;;;21.17;95.49;97945.50;5021384;28;21217;-62
2021/07/28 06:32:22;;;;;;;12.43;10.23;;;21.00;99.90;;;21.23;93.91;97931.53;5022679;28;20626;-62
2021/07/28 06:34:50;;;;;;;13.40;10.37;;;21.10;99.90;;;21.26;91.75;97931.19;5021292;28;20638;-62
2021/07/28 06:37:19;;;;;;;13.40;10.40;;;21.10;99.90;;;21.26;92.62;97941.81;5022667;28;21234;-62
2021/07/28 06:39:47;;;;;;;13.10;11.37;;;21.10;99.90;;;21.32;92.71;97940.13;5023834;28;20677;-62
2021/07/28 06:42:17;;;;;;;13.03;10.80;;;21.10;99.90;;;21.35;91.49;97941.59;5020905;28;20669;-62
2021/07/28 06:44:46;;;;;;;9.83;8.83;;;21.20;99.90;;;21.34;91.07;97955.88;5020429;28;20671;-62
2021/07/28 06:47:14;;;;;;;10.63;9.40;;;21.20;99.90;;;21.36;90.80;97949.41;5024537;28;21077;-62
2021/07/28 06:49:43;;;;;;;12.23;10.57;;;21.20;99.90;;;21.39;92.14;97953.50;5031915;28;20633;-62
2021/07/28 06:52:12;;;;;;;15.80;10.90;;;21.20;99.90;;;21.41;92.96;97940.91;5010437;28;21309;-62
2021/07/28 06:54:40;;;;;;;11.07;9.77;;;21.30;99.90;;;21.41;92.96;97940.91;5024175;28;20630;-62
2021/07/28 06:57:09;;;;;;;10.80;9.30;;;21.30;99.90;;;21.40;91.59;97941.91;5030776;28;21146;-63
2021/07/28 06:59:39;;;;;;;10.07;8.70;;;21.30;99.90;;;21.31;88.89;97950.91;5024290;28;21205;-62
2021/07/28 07:02:07;;;;;;;11.93;9.73;;;21.20;99.90;;;21.29;88.72;97952.91;5022186;28;20693;-62
2021/07/28 07:04:36;;;;;;;11.67;9.30;;;21.20;99.90;;;21.29;90.03;97953.75;5020469;28;20675;-62
2021/07/28 07:07:05;;;;;;;13.63;10.53;;;21.20;99.90;;;21.26;89.47;97953.28;5025189;28;21263;-62
2021/07/28 07:09:33;;;;;;;13.27;10.67;;;21.10;99.90;;;21.24;90.07;97938.50;5024326;28;20636;-62
2021/07/28 07:12:02;;;;;;;11.53;10.10;;;21.10;99.90;;;21.16;89.33;97920.00;5022572;28;20701;-62
2021/07/28 07:14:31;;;;;;;12.33;9.30;;;21.00;99.90;;;21.10;89.76;97918.03;5027387;28;20639;-62
2021/07/28 07:17:03;;;;;;;11.80;10.23;;;21.00;99.90;;;21.14;89.56;97929.94;5024960;28;20754;-62
2021/07/28 07:19:31;;;;;;;13.37;10.97;;;21.00;99.90;;;21.15;92.16;97944.84;5019018;28;20625;-62
2021/07/28 07:22:00;;;;;;;12.00;10.40;;;21.00;99.90;;;21.15;92.60;97964.25;5028068;28;20664;-63
2021/07/28 07:24:29;;;;;;;10.90;9.70;;;21.10;99.90;;;21.16;93.08;97978.34;5020458;28;20708;-62
2021/07/28 07:26:57;;;;;;;14.07;10.40;;;21.10;99.90;;;21.17;91.04;97977.34;5021172;28;21180;-63
2021/07/28 07:29:26;;;;;;;13.10;11.07;;;21.10;99.90;;;21.20;92.07;97969.88;5021780;28;20625;-62
2021/07/28 07:31:55;;;;;;;12.10;10.90;;;21.10;99.90;;;21.27;91.73;97972.66;5023760;28;20625;-62
2021/07/28 07:34:25;;;;;;;17.03;12.30;;;21.10;99.90;;;21.32;91.12;97974.63;5021050;28;20975;-63
2021/07/28 07:36:56;;;;;;;12.70;11.40;;;21.10;99.90;;;21.41;91.98;97978.06;5021091;28;21081;-62
2021/07/28 07:39:25;;;;;;;15.50;12.20;;;21.20;99.90;;;21.46;91.15;97981.06;5020031;28;20733;-62
2021/07/28 07:41:54;;;;;;;13.30;11.10;;;21.30;99.90;;;21.51;92.57;97995.44;5020669;28;20758;-62
2021/07/28 07:44:22;;;;;;;13.53;11.73;;;21.30;99.90;;;21.53;91.06;97997.91;5017261;28;20718;-63
2021/07/28 07:46:52;;;;;;;11.33;10.10;;;21.40;99.90;;;21.58;91.67;97993.75;5019500;28;20647;-62
2021/07/28 07:49:21;;;;;;;10.40;9.30;;;21.40;99.90;;;21.58;89.41;97987.63;5020840;28;20691;-63
2021/07/28 07:51:50;;;;;;;11.10;9.77;;;21.40;99.90;;;21.58;89.93;97985.78;5023099;28;20661;-62
2021/07/28 07:54:19;;;;;;;10.07;9.07;;;21.40;99.90;;;21.61;89.52;97984.63;5019323;28;20672;-62
2021/07/28 07:56:48;;;;;;;10.93;9.50;;;21.40;99.90;;;21.62;88.92;97987.09;5019806;28;20738;-63
2021/07/28 07:59:16;;;;;;;14.23;11.13;;;21.50;99.90;;;21.69;89.62;97992.53;5022146;28;21224;-63
2021/07/28 08:01:45;;;;;;;18.57;15.03;;;21.50;99.90;;;21.73;89.16;97993.84;5019379;28;20999;-62
2021/07/28 08:04:13;;;;;;;10.20;8.37;;;21.50;99.90;;;21.75;88.22;97986.50;5019441;28;20669;-62
2021/07/28 08:06:42;;;;;;;9.17;8.17;;;21.60;99.90;;;21.79;87.82;97999.28;5022381;28;21218;-62
2021/07/28 08:09:12;;;;;;;10.53;8.90;;;21.60;99.90;;;21.80;87.55;98001.75;5017991;28;20655;-63
2021/07/28 08:11:41;;;;;;;10.20;9.10;;;21.60;99.90;;;21.79;88.38;97999.28;5016328;28;21052;-63
2021/07/28 08:14:10;;;;;;;10.87;8.30;;;21.60;99.90;;;21.78;88.73;97997.59;5025899;28;20722;-63
2021/07/28 08:16:38;;;;;;;10.50;9.10;;;21.70;99.90;;;21.70;88.51;97989.69;5026924;28;20667;-63
2021/07/28 08:19:07;;;;;;;11.90;9.10;;;21.60;99.90;;;21.62;88.29;97992.41;5022246;28;20666;-63
2021/07/28 08:21:36;;;;;;;9.80;8.80;;;21.60;99.90;;;21.60;89.36;97996.22;5026065;28;20734;-62
2021/07/28 08:24:05;;;;;;;9.80;8.83;;;21.50;99.90;;;21.59;90.19;98011.34;5029201;28;20684;-62
2021/07/28 08:26:35;;;;;;;10.30;8.37;;;21.50;99.90;;;21.59;89.84;98000.72;5018730;28;21213;-63
2021/07/28 08:29:04;;;;;;;12.20;9.13;;;21.50;99.90;;;21.60;90.16;98006.84;5019985;28;20663;-62
2021/07/28 08:31:32;;;;;;;12.37;9.23;;;21.50;99.90;;;21.58;90.21;98006.22;5028967;28;21486;-62
2021/07/28 08:34:21;;;;;;;10.90;9.73;;;21.50;99.90;;;21.53;89.13;97998.78;5025135;28;20634;-61
2021/07/28 08:37:09;;;;;;;9.63;8.60;;;21.50;99.90;;;21.53;89.54;98006.72;5004725;28;21060;-62
2021/07/28 08:39:38;;;;;;;10.50;9.40;;;21.50;99.90;;;21.51;89.70;98003.41;5020561;28;21328;-62
2021/07/28 08:42:09;;;;;;;10.10;9.10;;;21.40;99.90;;;21.52;90.29;98005.06;5021913;28;20638;-62
2021/07/28 08:44:41;;;;;;;11.30;9.73;;;21.50;99.90;;;21.49;90.22;98002.75;5021820;28;20664;-62
2021/07/28 08:47:11;;;;;;;10.10;8.77;;;21.40;99.90;;;21.46;90.58;97992.50;5019467;28;20644;-62
2021/07/28 08:49:39;;;;;;;10.93;8.97;;;21.40;99.90;;;21.45;89.63;97982.84;5019819;28;21189;-63
2021/07/28 08:52:11;;;;;;;10.13;9.10;;;21.40;99.90;;;21.49;90.65;97988.66;5020981;28;20674;-63
2021/07/28 08:54:40;;;;;;;10.93;9.83;;;21.40;99.90;;;21.53;89.69;97988.16;5023321;28;22393;-62
2021/07/28 08:57:12;;;;;;;12.17;9.90;;;21.40;99.90;;;21.57;90.32;97984.13;5025017;28;20615;-62
2021/07/28 08:59:41;;;;;;;9.87;8.87;;;21.50;99.90;;;21.58;89.93;97982.31;5020363;28;20733;-62
2021/07/28 09:02:09;;;;;;;10.73;9.20;;;21.50;99.90;;;21.59;89.36;97995.41;5022587;28;20638;-62
2021/07/28 09:04:41;;;;;;;11.00;9.50;;;21.50;99.90;;;21.62;89.46;97984.44;5031435;28;20651;-63
2021/07/28 09:07:16;;;;;;;10.33;9.30;;;21.50;99.90;;;21.66;89.48;97983.06;5032642;28;20708;-62
2021/07/28 09:09:50;;;;;;;11.87;10.63;;;21.60;99.90;;;21.74;89.98;97991.00;5032680;28;20667;-63
2021/07/28 09:12:21;;;;;;;11.27;10.00;;;21.60;99.90;;;21.82;90.06;97986.44;5027117;28;20633;-63
2021/07/28 09:14:55;;;;;;;11.93;9.67;;;21.70;99.90;;;21.93;90.48;97990.53;5027602;28;20911;-63
2021/07/28 09:17:27;;;;;;;9.17;7.57;;;21.80;99.90;;;21.98;88.50;97985.50;5018165;28;20635;-62
2021/07/28 09:19:58;;;;;;;9.13;7.40;;;21.80;99.90;;;22.06;87.23;97988.13;5022654;28;20642;-62
2021/07/28 09:22:38;;;;;;;8.37;7.57;;;21.90;99.90;;;22.08;87.15;97978.13;5022484;28;20650;-63
2021/07/28 09:25:13;;;;;;;8.73;7.70;;;21.90;99.90;;;22.13;87.00;97981.91;5024405;28;20662;-62
2021/07/28 09:27:47;;;;;;;7.60;6.90;;;21.90;99.90;;;22.15;85.35;97985.22;5034780;28;21263;-64
2021/07/28 09:30:34;;;;;;;8.60;6.83;;;22.00;99.90;;;22.22;84.58;97983.50;5025693;28;21062;-62
2021/07/28 09:33:07;;;;;;;7.93;7.13;;;22.00;99.90;;;22.35;85.91;97989.06;5021023;28;20677;-62
2021/07/28 09:36:16;;;;;;;11.17;8.07;;;22.10;99.90;;;22.50;84.68;97990.72;5021548;28;20742;-62
2021/07/28 09:38:48;;;;;;;8.43;6.67;;;22.20;99.90;;;22.61;83.41;97984.97;5024980;28;20638;-63
2021/07/28 09:41:22;;;;;;;10.63;9.03;;;22.40;99.90;;;22.75;83.49;97981.50;5043225;28;20731;-63
2021/07/28 09:43:56;;;;;;;6.93;6.23;;;22.50;99.90;;;22.90;84.23;97985.00;5029091;28;21238;-63
2021/07/28 09:46:32;;;;;;;9.23;7.87;;;22.60;99.90;;;23.07;84.18;97984.66;5022402;28;20645;-63
2021/07/28 09:49:03;;;;;;;7.13;6.40;;;22.80;99.90;;;23.13;82.93;97989.25;5024129;28;20663;-63
2021/07/28 09:51:35;;;;;;;9.37;7.07;;;22.90;99.90;;;23.18;80.74;97992.16;5024344;28;20635;-63
2021/07/28 09:54:08;;;;;;;9.10;6.87;;;22.90;99.90;;;23.18;81.21;97996.66;5026097;28;20682;-62
2021/07/28 09:56:43;;;;;;;6.73;5.70;;;22.90;99.90;;;23.19;81.13;97995.66;5030905;28;20663;-63
2021/07/28 09:59:13;;;;;;;7.00;6.30;;;22.90;99.90;;;23.25;79.91;97993.09;5027502;28;20648;-62
2021/07/28 10:01:44;;;;;;;7.67;6.03;;;23.00;99.90;;;23.36;79.07;98004.09;5018260;28;21067;-62
2021/07/28 10:04:34;;;;;;;6.07;5.20;;;23.10;99.90;;;23.45;76.31;98012.78;5023459;28;20710;-62
2021/07/28 10:07:03;;;;;;;6.73;5.63;;;23.20;98.10;;;23.38;77.15;98004.72;5018309;28;20673;-62
2021/07/28 10:09:38;;;;;;;6.17;5.57;;;23.10;97.60;;;23.40;76.83;98004.53;5023340;28;21224;-62
2021/07/28 10:12:08;;;;;;;6.53;5.20;;;23.20;97.40;;;23.52;75.69;98003.06;5024623;28;20671;-62
2021/07/28 10:14:39;;;;;;;6.33;5.67;;;23.20;97.10;;;23.62;76.24;98007.09;5021597;28;20635;-62
2021/07/28 10:17:07;;;;;;;5.43;4.80;;;23.30;97.50;;;23.65;76.03;98006.75;5023123;28;20630;-62
2021/07/28 10:19:36;;;;;;;6.13;4.80;;;23.40;97.40;;;23.70;76.69;97993.66;5020047;28;20734;-61
2021/07/28 10:22:17;;;;;;;5.73;5.17;;;23.40;96.80;;;23.82;75.83;97997.50;5023846;28;21195;-60